sensor_id;sensor_type;location;lat;lon;timestamp;temperature;humidity
10566;DHT22;5331;48.148;16.326;2022-10-31T00:00:45;11.40;1.00
10566;DHT22;5331;48.148;16.326;2022-10-31T00:03:12;11.50;1.00
10566;DHT22;5331;48.148;16.326;2022-10-31T00:05:40;11.40;1.00
10566;DHT22;5331;48.148;16.326;2022-10-31T00:08:08;11.40;1.00
10566;DHT22;5331;48.148;16.326;2022-10-31T00:10:37;11.40;1.00
10566;DHT22;5331;48.148;16.326;2022-10-31T00:13:04;11.50;1.00
10566;DHT22;5331;48.148;16.326;2022-10-31T00:15:34;11.50;1.00
10566;DHT22;5331;48.148;16.326;2022-10-31T00:18:01;11.50;1.00
10566;DHT22;5331;48.148;16.326;2022-10-31T00:20:28;11.60;1.00
10566;DHT22;5331;48.148;16.326;2022-10-31T00:22:57;11.50;1.00
10566;DHT22;5331;48.148;16.326;2022-10-31T00:25:24;11.50;1.00
10566;DHT22;5331;48.148;16.326;2022-10-31T00:27:51;11.50;1.00
10566;DHT22;5331;48.148;16.326;2022-10-31T00:30:18;11.60;1.00
10566;DHT22;5331;48.148;16.326;2022-10-31T00:32:46;11.50;1.00
10566;DHT22;5331;48.148;16.326;2022-10-31T00:35:13;11.50;1.00
10566;DHT22;5331;48.148;16.326;2022-10-31T00:37:40;11.50;1.00
10566;DHT22;5331;48.148;16.326;2022-10-31T00:40:09;11.50;1.00
10566;DHT22;5331;48.148;16.326;2022-10-31T00:42:36;11.50;1.00
10566;DHT22;5331;48.148;16.326;2022-10-31T00:45:03;11.50;1.00
10566;DHT22;5331;48.148;16.326;2022-10-31T00:47:30;11.50;1.00
10566;DHT22;5331;48.148;16.326;2022-10-31T00:49:58;11.50;1.00
10566;DHT22;5331;48.148;16.326;2022-10-31T00:52:25;11.50;1.00
10566;DHT22;5331;48.148;16.326;2022-10-31T00:54:52;11.50;1.00
10566;DHT22;5331;48.148;16.326;2022-10-31T00:57:19;11.50;1.00
10566;DHT22;5331;48.148;16.326;2022-10-31T00:59:46;11.50;1.00
10566;DHT22;5331;48.148;16.326;2022-10-31T01:02:13;11.50;1.00
10566;DHT22;5331;48.148;16.326;2022-10-31T01:04:39;11.50;1.00
10566;DHT22;5331;48.148;16.326;2022-10-31T01:07:08;11.50;1.00
10566;DHT22;5331;48.148;16.326;2022-10-31T01:09:36;11.40;1.00
10566;DHT22;5331;48.148;16.326;2022-10-31T01:12:04;11.40;1.00
10566;DHT22;5331;48.148;16.326;2022-10-31T01:14:30;11.40;1.00
10566;DHT22;5331;48.148;16.326;2022-10-31T01:16:57;11.40;1.00
10566;DHT22;5331;48.148;16.326;2022-10-31T01:19:24;11.30;1.00
10566;DHT22;5331;48.148;16.326;2022-10-31T01:21:54;11.30;1.00
10566;DHT22;5331;48.148;16.326;2022-10-31T01:24:22;11.30;1.00
10566;DHT22;5331;48.148;16.326;2022-10-31T01:26:49;11.30;1.00
10566;DHT22;5331;48.148;16.326;2022-10-31T01:29:16;11.20;1.00
10566;DHT22;5331;48.148;16.326;2022-10-31T01:31:43;11.20;1.00
10566;DHT22;5331;48.148;16.326;2022-10-31T01:34:13;11.20;1.00
10566;DHT22;5331;48.148;16.326;2022-10-31T01:36:41;11.20;1.00
10566;DHT22;5331;48.148;16.326;2022-10-31T01:39:14;11.20;1.00
10566;DHT22;5331;48.148;16.326;2022-10-31T01:41:45;11.20;1.00
10566;DHT22;5331;48.148;16.326;2022-10-31T01:44:51;11.20;1.00
10566;DHT22;5331;48.148;16.326;2022-10-31T01:47:22;11.20;1.00
10566;DHT22;5331;48.148;16.326;2022-10-31T01:49:53;11.20;1.00
10566;DHT22;5331;48.148;16.326;2022-10-31T01:52:24;11.20;1.00
10566;DHT22;5331;48.148;16.326;2022-10-31T01:54:56;11.20;1.00
10566;DHT22;5331;48.148;16.326;2022-10-31T01:57:27;11.20;1.00
10566;DHT22;5331;48.148;16.326;2022-10-31T01:59:59;11.20;1.00
10566;DHT22;5331;48.148;16.326;2022-10-31T02:02:27;11.20;1.00
10566;DHT22;5331;48.148;16.326;2022-10-31T02:04:56;11.20;1.00
10566;DHT22;5331;48.148;16.326;2022-10-31T02:07:26;11.20;1.00
10566;DHT22;5331;48.148;16.326;2022-10-31T02:09:55;11.20;1.00
10566;DHT22;5331;48.148;16.326;2022-10-31T02:12:25;11.20;1.00
10566;DHT22;5331;48.148;16.326;2022-10-31T02:14:52;11.20;1.00
10566;DHT22;5331;48.148;16.326;2022-10-31T02:17:19;11.20;1.00
10566;DHT22;5331;48.148;16.326;2022-10-31T02:19:51;11.20;1.00
10566;DHT22;5331;48.148;16.326;2022-10-31T02:22:26;11.20;1.00
10566;DHT22;5331;48.148;16.326;2022-10-31T02:25:07;11.20;1.00
10566;DHT22;5331;48.148;16.326;2022-10-31T02:27:52;11.20;1.00
10566;DHT22;5331;48.148;16.326;2022-10-31T02:30:24;11.20;1.00
10566;DHT22;5331;48.148;16.326;2022-10-31T02:33:10;11.20;1.00
10566;DHT22;5331;48.148;16.326;2022-10-31T02:35:50;11.20;1.00
10566;DHT22;5331;48.148;16.326;2022-10-31T02:38:30;11.20;1.00
10566;DHT22;5331;48.148;16.326;2022-10-31T02:41:04;11.20;1.00
10566;DHT22;5331;48.148;16.326;2022-10-31T02:43:36;11.20;1.00
10566;DHT22;5331;48.148;16.326;2022-10-31T02:46:11;11.20;1.00
10566;DHT22;5331;48.148;16.326;2022-10-31T02:48:42;11.20;1.00
10566;DHT22;5331;48.148;16.326;2022-10-31T02:51:11;11.20;1.00
10566;DHT22;5331;48.148;16.326;2022-10-31T02:53:39;11.10;1.00
10566;DHT22;5331;48.148;16.326;2022-10-31T02:56:08;11.10;1.00
10566;DHT22;5331;48.148;16.326;2022-10-31T02:58:40;11.10;1.00
10566;DHT22;5331;48.148;16.326;2022-10-31T03:01:39;11.10;1.00
10566;DHT22;5331;48.148;16.326;2022-10-31T03:07:08;11.00;1.00
10566;DHT22;5331;48.148;16.326;2022-10-31T03:09:44;11.00;1.00
10566;DHT22;5331;48.148;16.326;2022-10-31T03:12:22;11.00;1.00
10566;DHT22;5331;48.148;16.326;2022-10-31T03:14:54;10.90;1.00
10566;DHT22;5331;48.148;16.326;2022-10-31T03:17:26;10.90;1.00
10566;DHT22;5331;48.148;16.326;2022-10-31T03:19:58;10.90;1.00
10566;DHT22;5331;48.148;16.326;2022-10-31T03:22:28;10.90;1.00
10566;DHT22;5331;48.148;16.326;2022-10-31T03:24:57;10.90;1.00
10566;DHT22;5331;48.148;16.326;2022-10-31T03:27:26;10.80;1.00
10566;DHT22;5331;48.148;16.326;2022-10-31T03:29:57;10.80;1.00
10566;DHT22;5331;48.148;16.326;2022-10-31T03:32:29;10.70;1.00
10566;DHT22;5331;48.148;16.326;2022-10-31T03:35:01;10.80;1.00
10566;DHT22;5331;48.148;16.326;2022-10-31T03:37:32;10.80;1.00
10566;DHT22;5331;48.148;16.326;2022-10-31T03:40:00;10.70;1.00
10566;DHT22;5331;48.148;16.326;2022-10-31T03:42:31;10.80;1.00
10566;DHT22;5331;48.148;16.326;2022-10-31T03:45:01;10.80;1.00
10566;DHT22;5331;48.148;16.326;2022-10-31T03:47:29;10.80;1.00
10566;DHT22;5331;48.148;16.326;2022-10-31T03:49:58;10.80;1.00
10566;DHT22;5331;48.148;16.326;2022-10-31T03:52:28;10.80;1.00
10566;DHT22;5331;48.148;16.326;2022-10-31T03:54:59;10.80;1.00
10566;DHT22;5331;48.148;16.326;2022-10-31T03:57:33;10.80;1.00
10566;DHT22;5331;48.148;16.326;2022-10-31T04:00:05;10.80;1.00
10566;DHT22;5331;48.148;16.326;2022-10-31T04:02:34;10.90;1.00
10566;DHT22;5331;48.148;16.326;2022-10-31T04:05:06;10.80;1.00
10566;DHT22;5331;48.148;16.326;2022-10-31T04:07:37;10.90;1.00
10566;DHT22;5331;48.148;16.326;2022-10-31T04:10:09;10.80;1.00
10566;DHT22;5331;48.148;16.326;2022-10-31T04:12:38;10.80;1.00
10566;DHT22;5331;48.148;16.326;2022-10-31T04:15:07;10.70;1.00
10566;DHT22;5331;48.148;16.326;2022-10-31T04:17:37;10.70;1.00
10566;DHT22;5331;48.148;16.326;2022-10-31T04:20:08;10.70;1.00
10566;DHT22;5331;48.148;16.326;2022-10-31T04:22:35;10.70;1.00
10566;DHT22;5331;48.148;16.326;2022-10-31T04:25:03;10.70;1.00
10566;DHT22;5331;48.148;16.326;2022-10-31T04:27:30;10.80;1.00
10566;DHT22;5331;48.148;16.326;2022-10-31T04:29:57;10.70;1.00
10566;DHT22;5331;48.148;16.326;2022-10-31T04:32:25;10.70;1.00
10566;DHT22;5331;48.148;16.326;2022-10-31T04:34:51;10.80;1.00
10566;DHT22;5331;48.148;16.326;2022-10-31T04:37:20;10.70;1.00
10566;DHT22;5331;48.148;16.326;2022-10-31T04:39:47;10.70;1.00
10566;DHT22;5331;48.148;16.326;2022-10-31T04:42:13;10.70;1.00
10566;DHT22;5331;48.148;16.326;2022-10-31T04:44:40;10.70;1.00
10566;DHT22;5331;48.148;16.326;2022-10-31T04:47:07;10.70;1.00
10566;DHT22;5331;48.148;16.326;2022-10-31T04:49:34;10.70;1.00
10566;DHT22;5331;48.148;16.326;2022-10-31T04:52:01;10.70;1.00
10566;DHT22;5331;48.148;16.326;2022-10-31T04:54:29;10.60;1.00
10566;DHT22;5331;48.148;16.326;2022-10-31T04:56:56;10.60;1.00
10566;DHT22;5331;48.148;16.326;2022-10-31T04:59:23;10.60;1.00
10566;DHT22;5331;48.148;16.326;2022-10-31T05:01:50;10.60;1.00
10566;DHT22;5331;48.148;16.326;2022-10-31T05:04:17;10.60;1.00
10566;DHT22;5331;48.148;16.326;2022-10-31T05:06:44;10.60;1.00
10566;DHT22;5331;48.148;16.326;2022-10-31T05:09:11;10.60;1.00
10566;DHT22;5331;48.148;16.326;2022-10-31T05:11:39;10.60;1.00
10566;DHT22;5331;48.148;16.326;2022-10-31T05:14:06;10.60;1.00
10566;DHT22;5331;48.148;16.326;2022-10-31T05:16:33;10.60;1.00
10566;DHT22;5331;48.148;16.326;2022-10-31T05:19:00;10.60;1.00
10566;DHT22;5331;48.148;16.326;2022-10-31T05:21:27;10.60;1.00
10566;DHT22;5331;48.148;16.326;2022-10-31T05:23:54;10.50;1.00
10566;DHT22;5331;48.148;16.326;2022-10-31T05:26:21;10.50;1.00
10566;DHT22;5331;48.148;16.326;2022-10-31T05:28:49;10.50;1.00
10566;DHT22;5331;48.148;16.326;2022-10-31T05:31:16;10.50;1.00
10566;DHT22;5331;48.148;16.326;2022-10-31T05:33:43;10.50;1.00
10566;DHT22;5331;48.148;16.326;2022-10-31T05:36:10;10.50;1.00
10566;DHT22;5331;48.148;16.326;2022-10-31T05:38:37;10.60;1.00
10566;DHT22;5331;48.148;16.326;2022-10-31T05:41:04;10.50;1.00
10566;DHT22;5331;48.148;16.326;2022-10-31T05:43:31;10.50;1.00
10566;DHT22;5331;48.148;16.326;2022-10-31T05:45:59;10.50;1.00
10566;DHT22;5331;48.148;16.326;2022-10-31T05:48:26;10.50;1.00
10566;DHT22;5331;48.148;16.326;2022-10-31T05:50:53;10.50;1.00
10566;DHT22;5331;48.148;16.326;2022-10-31T05:53:20;10.50;1.00
10566;DHT22;5331;48.148;16.326;2022-10-31T05:55:47;10.50;1.00
10566;DHT22;5331;48.148;16.326;2022-10-31T05:58:14;10.50;1.00
10566;DHT22;5331;48.148;16.326;2022-10-31T06:00:41;10.50;1.00
10566;DHT22;5331;48.148;16.326;2022-10-31T06:03:09;10.50;1.00
10566;DHT22;5331;48.148;16.326;2022-10-31T06:05:36;10.60;1.00
10566;DHT22;5331;48.148;16.326;2022-10-31T06:08:04;10.50;1.00
10566;DHT22;5331;48.148;16.326;2022-10-31T06:10:31;10.50;1.00
10566;DHT22;5331;48.148;16.326;2022-10-31T06:12:57;10.50;1.00
10566;DHT22;5331;48.148;16.326;2022-10-31T06:15:24;10.50;1.00
10566;DHT22;5331;48.148;16.326;2022-10-31T06:17:59;10.50;1.00
10566;DHT22;5331;48.148;16.326;2022-10-31T06:20:27;10.60;1.00
10566;DHT22;5331;48.148;16.326;2022-10-31T06:22:54;10.50;1.00
10566;DHT22;5331;48.148;16.326;2022-10-31T06:25:21;10.60;1.00
10566;DHT22;5331;48.148;16.326;2022-10-31T06:27:48;10.60;1.00
10566;DHT22;5331;48.148;16.326;2022-10-31T06:30:15;10.60;1.00
10566;DHT22;5331;48.148;16.326;2022-10-31T06:32:42;10.60;1.00
10566;DHT22;5331;48.148;16.326;2022-10-31T06:35:09;10.70;1.00
10566;DHT22;5331;48.148;16.326;2022-10-31T06:37:38;10.70;1.00
10566;DHT22;5331;48.148;16.326;2022-10-31T06:40:06;10.70;1.00
10566;DHT22;5331;48.148;16.326;2022-10-31T06:42:33;10.80;1.00
10566;DHT22;5331;48.148;16.326;2022-10-31T06:45:00;10.80;1.00
10566;DHT22;5331;48.148;16.326;2022-10-31T06:47:27;10.80;1.00
10566;DHT22;5331;48.148;16.326;2022-10-31T06:49:54;10.90;1.00
10566;DHT22;5331;48.148;16.326;2022-10-31T06:52:20;10.90;1.00
10566;DHT22;5331;48.148;16.326;2022-10-31T06:54:50;10.90;1.00
10566;DHT22;5331;48.148;16.326;2022-10-31T06:57:17;11.00;1.00
10566;DHT22;5331;48.148;16.326;2022-10-31T06:59:44;11.00;1.00
10566;DHT22;5331;48.148;16.326;2022-10-31T07:02:11;11.00;1.00
10566;DHT22;5331;48.148;16.326;2022-10-31T07:04:38;11.00;1.00
10566;DHT22;5331;48.148;16.326;2022-10-31T07:07:05;11.00;1.00
10566;DHT22;5331;48.148;16.326;2022-10-31T07:09:32;11.00;1.00
10566;DHT22;5331;48.148;16.326;2022-10-31T07:12:00;11.00;1.00
10566;DHT22;5331;48.148;16.326;2022-10-31T07:14:27;11.00;1.00
10566;DHT22;5331;48.148;16.326;2022-10-31T07:16:54;11.10;1.00
10566;DHT22;5331;48.148;16.326;2022-10-31T07:19:21;11.10;1.00
10566;DHT22;5331;48.148;16.326;2022-10-31T07:21:47;11.10;1.00
10566;DHT22;5331;48.148;16.326;2022-10-31T07:24:14;11.10;1.00
10566;DHT22;5331;48.148;16.326;2022-10-31T07:26:41;11.10;1.00
10566;DHT22;5331;48.148;16.326;2022-10-31T07:29:10;11.10;1.00
10566;DHT22;5331;48.148;16.326;2022-10-31T07:31:37;11.10;1.00
10566;DHT22;5331;48.148;16.326;2022-10-31T07:34:04;11.10;1.00
10566;DHT22;5331;48.148;16.326;2022-10-31T07:36:31;11.00;1.00
10566;DHT22;5331;48.148;16.326;2022-10-31T07:38:58;11.00;1.00
10566;DHT22;5331;48.148;16.326;2022-10-31T07:41:25;11.10;1.00
10566;DHT22;5331;48.148;16.326;2022-10-31T07:43:52;11.20;1.00
10566;DHT22;5331;48.148;16.326;2022-10-31T07:46:21;11.10;1.00
10566;DHT22;5331;48.148;16.326;2022-10-31T07:48:48;11.20;1.00
10566;DHT22;5331;48.148;16.326;2022-10-31T07:51:15;11.20;1.00
10566;DHT22;5331;48.148;16.326;2022-10-31T07:53:42;11.20;1.00
10566;DHT22;5331;48.148;16.326;2022-10-31T07:56:09;11.20;1.00
10566;DHT22;5331;48.148;16.326;2022-10-31T07:58:36;11.20;1.00
10566;DHT22;5331;48.148;16.326;2022-10-31T08:01:03;11.20;1.00
10566;DHT22;5331;48.148;16.326;2022-10-31T08:03:31;11.20;1.00
10566;DHT22;5331;48.148;16.326;2022-10-31T08:05:58;11.10;1.00
10566;DHT22;5331;48.148;16.326;2022-10-31T08:08:25;11.20;1.00
10566;DHT22;5331;48.148;16.326;2022-10-31T08:10:53;11.20;1.00
10566;DHT22;5331;48.148;16.326;2022-10-31T08:13:20;11.30;1.00
10566;DHT22;5331;48.148;16.326;2022-10-31T08:15:47;11.30;1.00
10566;DHT22;5331;48.148;16.326;2022-10-31T08:18:16;11.40;1.00
10566;DHT22;5331;48.148;16.326;2022-10-31T08:20:44;11.40;1.00
10566;DHT22;5331;48.148;16.326;2022-10-31T08:23:12;11.40;1.00
10566;DHT22;5331;48.148;16.326;2022-10-31T08:25:40;11.40;1.00
10566;DHT22;5331;48.148;16.326;2022-10-31T08:28:09;11.50;1.00
10566;DHT22;5331;48.148;16.326;2022-10-31T08:30:38;11.50;1.00
10566;DHT22;5331;48.148;16.326;2022-10-31T08:33:08;11.40;1.00
10566;DHT22;5331;48.148;16.326;2022-10-31T08:35:35;11.40;1.00
10566;DHT22;5331;48.148;16.326;2022-10-31T08:38:04;11.50;1.00
10566;DHT22;5331;48.148;16.326;2022-10-31T08:40:32;11.50;1.00
10566;DHT22;5331;48.148;16.326;2022-10-31T08:43:01;11.60;1.00
10566;DHT22;5331;48.148;16.326;2022-10-31T08:45:30;11.70;1.00
10566;DHT22;5331;48.148;16.326;2022-10-31T08:47:57;11.70;1.00
10566;DHT22;5331;48.148;16.326;2022-10-31T08:50:25;11.70;1.00
10566;DHT22;5331;48.148;16.326;2022-10-31T08:52:52;11.70;1.00
10566;DHT22;5331;48.148;16.326;2022-10-31T08:55:21;11.70;1.00
10566;DHT22;5331;48.148;16.326;2022-10-31T08:57:48;11.80;1.00
10566;DHT22;5331;48.148;16.326;2022-10-31T09:00:15;11.80;1.00
10566;DHT22;5331;48.148;16.326;2022-10-31T09:02:42;11.80;1.00
10566;DHT22;5331;48.148;16.326;2022-10-31T09:05:09;11.80;1.00
10566;DHT22;5331;48.148;16.326;2022-10-31T09:07:35;11.90;1.00
10566;DHT22;5331;48.148;16.326;2022-10-31T09:10:03;11.80;1.00
10566;DHT22;5331;48.148;16.326;2022-10-31T09:12:31;11.80;1.00
10566;DHT22;5331;48.148;16.326;2022-10-31T09:14:58;11.90;1.00
10566;DHT22;5331;48.148;16.326;2022-10-31T09:17:26;11.80;1.00
10566;DHT22;5331;48.148;16.326;2022-10-31T09:19:54;11.90;1.00
10566;DHT22;5331;48.148;16.326;2022-10-31T09:22:21;11.90;1.00
10566;DHT22;5331;48.148;16.326;2022-10-31T09:24:48;11.90;1.00
10566;DHT22;5331;48.148;16.326;2022-10-31T09:27:15;12.00;1.00
10566;DHT22;5331;48.148;16.326;2022-10-31T09:29:44;12.00;1.00
10566;DHT22;5331;48.148;16.326;2022-10-31T09:32:10;12.00;1.00
10566;DHT22;5331;48.148;16.326;2022-10-31T09:34:37;12.00;1.00
10566;DHT22;5331;48.148;16.326;2022-10-31T09:37:04;12.00;1.00
10566;DHT22;5331;48.148;16.326;2022-10-31T09:39:31;12.00;1.00
10566;DHT22;5331;48.148;16.326;2022-10-31T09:42:06;12.00;1.00
10566;DHT22;5331;48.148;16.326;2022-10-31T09:44:46;12.10;1.00
10566;DHT22;5331;48.148;16.326;2022-10-31T09:47:22;12.10;1.00
10566;DHT22;5331;48.148;16.326;2022-10-31T09:50:02;12.10;1.00
10566;DHT22;5331;48.148;16.326;2022-10-31T09:52:35;12.10;1.00
10566;DHT22;5331;48.148;16.326;2022-10-31T09:55:05;12.10;1.00
10566;DHT22;5331;48.148;16.326;2022-10-31T09:57:36;12.10;1.00
10566;DHT22;5331;48.148;16.326;2022-10-31T10:00:06;12.00;1.00
10566;DHT22;5331;48.148;16.326;2022-10-31T10:02:37;12.10;1.00
10566;DHT22;5331;48.148;16.326;2022-10-31T10:05:10;12.10;1.00
10566;DHT22;5331;48.148;16.326;2022-10-31T10:07:44;12.10;1.00
10566;DHT22;5331;48.148;16.326;2022-10-31T10:10:17;12.10;1.00
10566;DHT22;5331;48.148;16.326;2022-10-31T10:12:59;12.20;1.00
10566;DHT22;5331;48.148;16.326;2022-10-31T10:15:39;12.10;1.00
10566;DHT22;5331;48.148;16.326;2022-10-31T10:18:16;12.10;1.00
10566;DHT22;5331;48.148;16.326;2022-10-31T10:20:56;12.10;1.00
10566;DHT22;5331;48.148;16.326;2022-10-31T10:23:40;12.20;1.00
10566;DHT22;5331;48.148;16.326;2022-10-31T10:26:18;12.20;1.00
10566;DHT22;5331;48.148;16.326;2022-10-31T10:28:48;12.20;1.00
10566;DHT22;5331;48.148;16.326;2022-10-31T10:31:21;12.30;1.00
10566;DHT22;5331;48.148;16.326;2022-10-31T10:33:58;12.30;1.00
10566;DHT22;5331;48.148;16.326;2022-10-31T10:36:31;12.30;1.00
10566;DHT22;5331;48.148;16.326;2022-10-31T10:39:03;12.40;1.00
10566;DHT22;5331;48.148;16.326;2022-10-31T10:41:32;12.40;1.00
10566;DHT22;5331;48.148;16.326;2022-10-31T10:43:59;12.40;1.00
10566;DHT22;5331;48.148;16.326;2022-10-31T10:46:32;12.50;1.00
10566;DHT22;5331;48.148;16.326;2022-10-31T10:49:26;12.50;1.00
10566;DHT22;5331;48.148;16.326;2022-10-31T10:51:58;12.50;1.00
10566;DHT22;5331;48.148;16.326;2022-10-31T10:54:39;12.50;1.00
10566;DHT22;5331;48.148;16.326;2022-10-31T10:57:17;12.60;1.00
10566;DHT22;5331;48.148;16.326;2022-10-31T10:59:46;12.60;1.00
10566;DHT22;5331;48.148;16.326;2022-10-31T11:02:18;12.60;1.00
10566;DHT22;5331;48.148;16.326;2022-10-31T11:04:50;12.60;1.00
10566;DHT22;5331;48.148;16.326;2022-10-31T11:07:18;12.60;1.00
10566;DHT22;5331;48.148;16.326;2022-10-31T11:09:45;12.60;1.00
10566;DHT22;5331;48.148;16.326;2022-10-31T11:12:19;12.70;1.00
10566;DHT22;5331;48.148;16.326;2022-10-31T11:14:49;12.70;1.00
10566;DHT22;5331;48.148;16.326;2022-10-31T11:17:24;12.60;1.00
10566;DHT22;5331;48.148;16.326;2022-10-31T11:20:00;12.70;1.00
10566;DHT22;5331;48.148;16.326;2022-10-31T11:22:27;12.70;1.00
10566;DHT22;5331;48.148;16.326;2022-10-31T11:24:54;12.70;1.00
10566;DHT22;5331;48.148;16.326;2022-10-31T11:27:23;12.80;1.00
10566;DHT22;5331;48.148;16.326;2022-10-31T11:29:51;12.80;1.00
10566;DHT22;5331;48.148;16.326;2022-10-31T11:32:21;12.80;1.00
10566;DHT22;5331;48.148;16.326;2022-10-31T11:34:52;12.70;1.00
10566;DHT22;5331;48.148;16.326;2022-10-31T11:37:23;12.70;1.00
10566;DHT22;5331;48.148;16.326;2022-10-31T11:39:53;12.80;1.00
10566;DHT22;5331;48.148;16.326;2022-10-31T11:42:22;12.80;1.00
10566;DHT22;5331;48.148;16.326;2022-10-31T11:44:51;12.80;1.00
10566;DHT22;5331;48.148;16.326;2022-10-31T11:47:26;12.90;1.00
10566;DHT22;5331;48.148;16.326;2022-10-31T11:49:54;12.90;1.00
10566;DHT22;5331;48.148;16.326;2022-10-31T11:52:24;12.90;1.00
10566;DHT22;5331;48.148;16.326;2022-10-31T11:54:54;12.90;1.00
10566;DHT22;5331;48.148;16.326;2022-10-31T11:57:23;12.90;1.00
10566;DHT22;5331;48.148;16.326;2022-10-31T11:59:52;12.90;1.00
10566;DHT22;5331;48.148;16.326;2022-10-31T12:02:21;12.90;1.00
10566;DHT22;5331;48.148;16.326;2022-10-31T12:04:55;12.90;1.00
10566;DHT22;5331;48.148;16.326;2022-10-31T12:07:23;12.90;1.00
10566;DHT22;5331;48.148;16.326;2022-10-31T12:09:50;12.90;1.00
10566;DHT22;5331;48.148;16.326;2022-10-31T12:12:45;12.90;1.00
10566;DHT22;5331;48.148;16.326;2022-10-31T12:15:30;12.90;1.00
10566;DHT22;5331;48.148;16.326;2022-10-31T12:18:23;12.80;1.00
10566;DHT22;5331;48.148;16.326;2022-10-31T12:20:58;12.70;1.00
10566;DHT22;5331;48.148;16.326;2022-10-31T12:23:33;12.80;1.00
10566;DHT22;5331;48.148;16.326;2022-10-31T12:26:09;12.70;1.00
10566;DHT22;5331;48.148;16.326;2022-10-31T12:28:57;12.70;1.00
10566;DHT22;5331;48.148;16.326;2022-10-31T12:31:41;12.80;1.00
10566;DHT22;5331;48.148;16.326;2022-10-31T12:37:15;12.80;1.00
10566;DHT22;5331;48.148;16.326;2022-10-31T12:39:52;12.70;1.00
10566;DHT22;5331;48.148;16.326;2022-10-31T12:42:35;12.70;1.00
10566;DHT22;5331;48.148;16.326;2022-10-31T12:45:24;12.70;1.00
10566;DHT22;5331;48.148;16.326;2022-10-31T12:50:55;12.70;1.00
10566;DHT22;5331;48.148;16.326;2022-10-31T12:53:34;12.70;1.00
10566;DHT22;5331;48.148;16.326;2022-10-31T12:56:12;12.60;1.00
10566;DHT22;5331;48.148;16.326;2022-10-31T12:58:47;12.60;1.00
10566;DHT22;5331;48.148;16.326;2022-10-31T13:01:18;12.60;1.00
10566;DHT22;5331;48.148;16.326;2022-10-31T13:03:53;12.70;1.00
10566;DHT22;5331;48.148;16.326;2022-10-31T13:06:29;12.70;1.00
10566;DHT22;5331;48.148;16.326;2022-10-31T13:08:59;12.60;1.00
10566;DHT22;5331;48.148;16.326;2022-10-31T13:11:32;12.60;1.00
10566;DHT22;5331;48.148;16.326;2022-10-31T13:16:46;12.70;1.00
10566;DHT22;5331;48.148;16.326;2022-10-31T13:19:16;12.70;1.00
10566;DHT22;5331;48.148;16.326;2022-10-31T13:21:55;12.60;1.00
10566;DHT22;5331;48.148;16.326;2022-10-31T13:24:31;12.70;1.00
10566;DHT22;5331;48.148;16.326;2022-10-31T13:27:02;12.60;1.00
10566;DHT22;5331;48.148;16.326;2022-10-31T13:29:37;12.60;1.00
10566;DHT22;5331;48.148;16.326;2022-10-31T13:32:07;12.60;1.00
10566;DHT22;5331;48.148;16.326;2022-10-31T13:34:37;12.60;1.00
10566;DHT22;5331;48.148;16.326;2022-10-31T13:37:14;12.60;1.00
10566;DHT22;5331;48.148;16.326;2022-10-31T13:40:03;12.60;1.00
10566;DHT22;5331;48.148;16.326;2022-10-31T13:42:41;12.60;1.00
10566;DHT22;5331;48.148;16.326;2022-10-31T13:45:13;12.70;1.00
10566;DHT22;5331;48.148;16.326;2022-10-31T13:47:41;12.70;1.00
10566;DHT22;5331;48.148;16.326;2022-10-31T13:50:20;12.60;1.00
10566;DHT22;5331;48.148;16.326;2022-10-31T13:52:49;12.60;1.00
10566;DHT22;5331;48.148;16.326;2022-10-31T13:55:35;12.60;1.00
10566;DHT22;5331;48.148;16.326;2022-10-31T13:58:04;12.70;1.00
10566;DHT22;5331;48.148;16.326;2022-10-31T14:00:31;12.60;1.00
10566;DHT22;5331;48.148;16.326;2022-10-31T14:03:00;12.60;1.00
10566;DHT22;5331;48.148;16.326;2022-10-31T14:05:30;12.60;1.00
10566;DHT22;5331;48.148;16.326;2022-10-31T14:08:01;12.60;1.00
10566;DHT22;5331;48.148;16.326;2022-10-31T14:10:30;12.60;1.00
10566;DHT22;5331;48.148;16.326;2022-10-31T14:13:06;12.60;1.00
10566;DHT22;5331;48.148;16.326;2022-10-31T14:15:42;12.60;1.00
10566;DHT22;5331;48.148;16.326;2022-10-31T14:18:21;12.60;1.00
10566;DHT22;5331;48.148;16.326;2022-10-31T14:20:49;12.50;1.00
10566;DHT22;5331;48.148;16.326;2022-10-31T14:23:36;12.50;1.00
10566;DHT22;5331;48.148;16.326;2022-10-31T14:26:19;12.40;1.00
10566;DHT22;5331;48.148;16.326;2022-10-31T14:28:47;12.40;1.00
10566;DHT22;5331;48.148;16.326;2022-10-31T14:31:34;12.40;1.00
10566;DHT22;5331;48.148;16.326;2022-10-31T14:34:07;12.40;1.00
10566;DHT22;5331;48.148;16.326;2022-10-31T14:37:02;12.40;1.00
10566;DHT22;5331;48.148;16.326;2022-10-31T14:39:37;12.30;1.00
10566;DHT22;5331;48.148;16.326;2022-10-31T14:42:17;12.30;1.00
10566;DHT22;5331;48.148;16.326;2022-10-31T14:44:57;12.30;1.00
10566;DHT22;5331;48.148;16.326;2022-10-31T14:47:32;12.30;1.00
10566;DHT22;5331;48.148;16.326;2022-10-31T14:50:25;12.30;1.00
10566;DHT22;5331;48.148;16.326;2022-10-31T14:52:57;12.30;1.00
10566;DHT22;5331;48.148;16.326;2022-10-31T14:55:29;12.30;1.00
10566;DHT22;5331;48.148;16.326;2022-10-31T14:57:59;12.30;1.00
10566;DHT22;5331;48.148;16.326;2022-10-31T15:00:43;12.30;1.00
10566;DHT22;5331;48.148;16.326;2022-10-31T15:03:14;12.20;1.00
10566;DHT22;5331;48.148;16.326;2022-10-31T15:05:48;12.20;1.00
10566;DHT22;5331;48.148;16.326;2022-10-31T15:08:32;12.30;1.00
10566;DHT22;5331;48.148;16.326;2022-10-31T15:11:09;12.20;1.00
10566;DHT22;5331;48.148;16.326;2022-10-31T15:13:43;12.10;1.00
10566;DHT22;5331;48.148;16.326;2022-10-31T15:16:12;12.10;1.00
10566;DHT22;5331;48.148;16.326;2022-10-31T15:18:52;12.10;1.00
10566;DHT22;5331;48.148;16.326;2022-10-31T15:21:20;12.10;1.00
10566;DHT22;5331;48.148;16.326;2022-10-31T15:23:50;12.10;1.00
10566;DHT22;5331;48.148;16.326;2022-10-31T15:26:21;12.10;1.00
10566;DHT22;5331;48.148;16.326;2022-10-31T15:28:58;12.10;1.00
10566;DHT22;5331;48.148;16.326;2022-10-31T15:31:25;12.10;1.00
10566;DHT22;5331;48.148;16.326;2022-10-31T15:33:53;12.00;1.00
10566;DHT22;5331;48.148;16.326;2022-10-31T15:36:25;12.00;1.00
10566;DHT22;5331;48.148;16.326;2022-10-31T15:38:56;12.00;1.00
10566;DHT22;5331;48.148;16.326;2022-10-31T15:41:31;12.00;1.00
10566;DHT22;5331;48.148;16.326;2022-10-31T15:44:10;11.90;1.00
10566;DHT22;5331;48.148;16.326;2022-10-31T15:46:39;12.00;1.00
10566;DHT22;5331;48.148;16.326;2022-10-31T15:49:19;12.10;1.00
10566;DHT22;5331;48.148;16.326;2022-10-31T15:51:50;12.10;1.00
10566;DHT22;5331;48.148;16.326;2022-10-31T15:54:17;12.10;1.00
10566;DHT22;5331;48.148;16.326;2022-10-31T15:56:46;12.10;1.00
10566;DHT22;5331;48.148;16.326;2022-10-31T15:59:18;12.10;1.00
10566;DHT22;5331;48.148;16.326;2022-10-31T16:01:58;12.10;1.00
10566;DHT22;5331;48.148;16.326;2022-10-31T16:04:25;12.10;1.00
10566;DHT22;5331;48.148;16.326;2022-10-31T16:07:10;12.10;1.00
10566;DHT22;5331;48.148;16.326;2022-10-31T16:09:49;12.00;1.00
10566;DHT22;5331;48.148;16.326;2022-10-31T16:12:18;12.00;1.00
10566;DHT22;5331;48.148;16.326;2022-10-31T16:14:45;12.00;1.00
10566;DHT22;5331;48.148;16.326;2022-10-31T16:17:13;12.00;1.00
10566;DHT22;5331;48.148;16.326;2022-10-31T16:19:47;11.90;1.00